Time;durP1;ratioP1;P1;durP2;ratioP2;P2;SDS_P1;SDS_P2;PMS_P1;PMS_P2;Temp;Humidity;BMP_temperature;BMP_pressure;BME280_temperature;BME280_humidity;BME280_pressure;Samples;Min_cycle;Max_cycle;Signal;HPM_P1;HPM_P2
2022/09/05 06:25:42;;;;;;;;;5.00;5.00;;;;;;;;6282497;22;45292;-89
2022/09/05 06:28:09;;;;;;;;;7.00;6.00;;;;;;;;6282295;22;45309;-89
2022/09/05 06:30:39;;;;;;;;;7.67;4.67;;;;;;;;6276421;22;45396;-90
2022/09/05 06:33:07;;;;;;;;;4.67;4.67;;;;;;;;6272530;22;45780;-90
2022/09/05 06:35:32;;;;;;;;;11.00;9.33;;;;;;;;6269675;22;45652;-91
2022/09/05 06:38:15;;;;;;;;;5.75;5.75;;;;;;;;6273184;22;45416;-87
2022/09/05 06:40:52;;;;;;;;;8.00;8.00;;;;;;;;6242217;22;45332;-88
2022/09/05 06:43:20;;;;;;;;;8.00;7.00;;;;;;;;6243702;22;46170;-87
2022/09/05 06:45:56;;;;;;;;;5.00;5.00;;;;;;;;6271421;22;45387;-87
2022/09/05 06:48:24;;;;;;;;;7.33;7.33;;;;;;;;6272173;22;45352;-88
2022/09/05 06:50:50;;;;;;;;;7.67;6.33;;;;;;;;6272546;22;45302;-88
2022/09/05 06:53:41;;;;;;;;;6.67;6.67;;;;;;;;6270589;22;46872;-87
2022/09/05 06:56:15;;;;;;;;;8.00;7.33;;;;;;;;6241209;22;45359;-87
2022/09/05 06:58:50;;;;;;;;;8.00;5.33;;;;;;;;6269828;22;45330;-87
2022/09/05 07:01:21;;;;;;;;;4.67;4.67;;;;;;;;6273165;22;45377;-87
2022/09/05 07:03:55;;;;;;;;;6.00;6.00;;;;;;;;6268601;22;46111;-86
2022/09/05 07:06:30;;;;;;;;;6.67;4.33;;;;;;;;6269561;22;45720;-87
2022/09/05 07:09:07;;;;;;;;;5.00;5.00;;;;;;;;6271640;22;45250;-85
2022/09/05 07:11:39;;;;;;;;;4.00;4.00;;;;;;;;6244310;22;45451;-88
2022/09/05 07:14:20;;;;;;;;;4.00;4.00;;;;;;;;6267651;22;46071;-88
2022/09/05 07:16:49;;;;;;;;;4.67;4.00;;;;;;;;6270527;22;45444;-88
2022/09/05 07:19:26;;;;;;;;;4.00;4.00;;;;;;;;6268605;22;45688;-89
2022/09/05 07:22:13;;;;;;;;;3.67;3.00;;;;;;;;6241991;22;45346;-88
2022/09/05 07:24:42;;;;;;;;;4.33;4.33;;;;;;;;6269575;22;45502;-92
2022/09/05 07:27:08;;;;;;;;;3.33;3.33;;;;;;;;6244662;22;45297;-92
2022/09/05 07:29:36;;;;;;;;;6.33;3.00;;;;;;;;6242670;22;45343;-90
2022/09/05 07:32:03;;;;;;;;;3.67;3.67;;;;;;;;6244977;22;45421;-91
2022/09/05 07:34:30;;;;;;;;;3.33;3.00;;;;;;;;6243831;22;47170;-92
2022/09/05 07:37:22;;;;;;;;;8.00;4.00;;;;;;;;6244737;22;45898;-92
2022/09/05 07:39:53;;;;;;;;;3.67;3.67;;;;;;;;6266935;22;45535;-92
2022/09/05 07:42:25;;;;;;;;;4.33;3.00;;;;;;;;6270315;22;45433;-91
2022/09/05 07:45:05;;;;;;;;;5.33;5.33;;;;;;;;6242834;22;47990;-91
2022/09/05 07:47:32;;;;;;;;;3.33;3.33;;;;;;;;6274997;22;45325;-93
2022/09/05 07:49:59;;;;;;;;;6.00;4.67;;;;;;;;6242997;22;45401;-92
2022/09/05 07:52:26;;;;;;;;;4.00;4.00;;;;;;;;6245802;22;45497;-96
2022/09/05 07:55:00;;;;;;;;;5.00;5.00;;;;;;;;6263976;22;47086;-96
2022/09/05 07:57:30;;;;;;;;;5.67;3.33;;;;;;;;6270182;22;45103;-95
2022/09/05 07:59:57;;;;;;;;;4.00;4.00;;;;;;;;6271493;22;45227;-96
2022/09/05 08:02:22;;;;;;;;;4.33;4.33;;;;;;;;6270580;22;44844;-96
2022/09/05 08:04:48;;;;;;;;;4.33;4.00;;;;;;;;6296361;22;46975;-96
2022/09/05 08:07:17;;;;;;;;;4.33;4.33;;;;;;;;6263903;22;45238;-96
2022/09/05 08:09:46;;;;;;;;;4.33;3.33;;;;;;;;6291218;22;45435;-96
2022/09/05 08:12:17;;;;;;;;;4.67;3.67;;;;;;;;6295028;22;44704;-96
2022/09/05 08:27:54;;;;;;;;;4.67;3.33;;;;;;;;6355537;22;46418;-96
2022/09/05 08:30:19;;;;;;;;;2.00;2.00;;;;;;;;6376676;22;45401;-96
2022/09/05 08:32:56;;;;;;;;;3.67;3.67;;;;;;;;6349456;22;45264;-95
2022/09/05 08:35:25;;;;;;;;;2.67;2.67;;;;;;;;6354792;22;47525;-96
2022/09/05 08:37:53;;;;;;;;;4.00;3.00;;;;;;;;6379607;22;45284;-96
2022/09/05 08:40:28;;;;;;;;;1.67;1.67;;;;;;;;6331568;22;46084;-95
2022/09/05 08:42:59;;;;;;;;;3.67;3.00;;;;;;;;6304722;22;45127;-96
2022/09/05 08:45:44;;;;;;;;;4.33;4.33;;;;;;;;6312427;22;47156;-96
2022/09/05 08:48:21;;;;;;;;;4.00;4.00;;;;;;;;6310499;22;45423;-96
2022/09/05 08:51:08;;;;;;;;;1.67;1.67;;;;;;;;6302933;22;45455;-96
2022/09/05 08:54:16;;;;;;;;;3.00;3.00;;;;;;;;6307735;22;45470;-96
2022/09/05 08:57:12;;;;;;;;;5.00;4.00;;;;;;;;6305799;22;47090;-96
2022/09/05 09:00:01;;;;;;;;;4.00;4.00;;;;;;;;6309909;22;45340;-96
2022/09/05 09:02:45;;;;;;;;;5.67;4.00;;;;;;;;6309892;22;44733;-96
2022/09/05 09:05:29;;;;;;;;;3.00;3.00;;;;;;;;6308564;22;45426;-96
2022/09/05 09:11:27;;;;;;;;;5.00;3.00;;;;;;;;6278961;22;45418;-96
2022/09/05 09:20:38;;;;;;;;;6.33;4.00;;;;;;;;6343271;22;45403;-96
2022/09/05 09:23:06;;;;;;;;;3.00;2.33;;;;;;;;6312168;22;45958;-96
2022/09/05 09:28:39;;;;;;;;;2.33;2.33;;;;;;;;6340473;22;45479;-96
2022/09/05 09:31:18;;;;;;;;;2.00;2.00;;;;;;;;6304480;22;46767;-96
2022/09/05 09:34:21;;;;;;;;;2.33;2.00;;;;;;;;6314594;22;45407;-96
2022/09/05 09:52:03;;;;;;;;;2.00;2.00;;;;;;;;6283641;22;45226;-96
2022/09/05 10:05:18;;;;;;;;;;;;;;;;;;;;;
2022/09/05 10:08:39;;;;;;;;;2.00;1.00;;;;;;;;6090352;23;74877;-96
2022/09/05 10:11:23;;;;;;;;;1.00;1.00;;;;;;;;6070105;23;45469;-96
2022/09/05 10:19:34;;;;;;;;;1.67;1.67;;;;;;;;6377389;22;64636;-95
2022/09/05 10:22:13;;;;;;;;;2.00;0.67;;;;;;;;6351317;22;45281;-94
2022/09/05 10:25:03;;;;;;;;;1.00;1.00;;;;;;;;6380705;22;45385;-95
2022/09/05 10:27:47;;;;;;;;;0.00;0.00;;;;;;;;6352908;22;45290;-95
2022/09/05 10:30:21;;;;;;;;;4.00;2.00;;;;;;;;6345893;22;47054;-92
2022/09/05 10:32:46;;;;;;;;;3.67;2.00;;;;;;;;6341499;22;45776;-93
2022/09/05 10:35:17;;;;;;;;;1.33;1.33;;;;;;;;6367633;22;45259;-92
2022/09/05 10:37:50;;;;;;;;;1.33;1.33;;;;;;;;6338759;22;45640;-91
2022/09/05 10:40:18;;;;;;;;;0.67;0.67;;;;;;;;6364755;22;46436;-91
2022/09/05 10:42:46;;;;;;;;;3.00;2.00;;;;;;;;6337892;22;45366;-89
2022/09/05 10:45:17;;;;;;;;;1.00;1.00;;;;;;;;6336933;22;45514;-93
2022/09/05 10:47:44;;;;;;;;;0.67;0.67;;;;;;;;6339834;22;45367;-93
2022/09/05 10:50:15;;;;;;;;;2.00;1.00;;;;;;;;6365131;22;46364;-93
2022/09/05 10:52:43;;;;;;;;;1.00;1.00;;;;;;;;6367012;22;45341;-96
2022/09/05 10:55:16;;;;;;;;;1.00;1.00;;;;;;;;6336277;22;45394;-91
2022/09/05 10:57:41;;;;;;;;;0.00;0.00;;;;;;;;6367365;22;45339;-93
2022/09/05 11:00:10;;;;;;;;;0.67;0.67;;;;;;;;6366372;22;45469;-95
2022/09/05 11:02:42;;;;;;;;;0.33;0.33;;;;;;;;6370534;22;45246;-91
2022/09/05 11:05:17;;;;;;;;;1.00;1.00;;;;;;;;6357018;22;45425;-92
2022/09/05 11:07:51;;;;;;;;;2.00;0.67;;;;;;;;6364185;22;45659;-91
2022/09/05 11:10:21;;;;;;;;;0.33;0.33;;;;;;;;6362057;22;45829;-92
2022/09/05 11:13:07;;;;;;;;;0.00;0.00;;;;;;;;6346901;22;45949;-92
2022/09/05 11:15:53;;;;;;;;;0.00;0.00;;;;;;;;6375005;22;45296;-93
2022/09/05 11:18:31;;;;;;;;;0.00;0.00;;;;;;;;6335528;22;45316;-93
2022/09/05 11:21:06;;;;;;;;;0.00;0.00;;;;;;;;6365287;22;46234;-91
2022/09/05 11:23:40;;;;;;;;;1.00;1.00;;;;;;;;6336715;22;45373;-94
2022/09/05 11:26:10;;;;;;;;;0.33;0.33;;;;;;;;6365639;22;45337;-92
2022/09/05 11:28:47;;;;;;;;;0.00;0.00;;;;;;;;6364765;22;45650;-92
2022/09/05 11:31:16;;;;;;;;;0.00;0.00;;;;;;;;6365190;22;46635;-92
2022/09/05 11:33:41;;;;;;;;;0.00;0.00;;;;;;;;6337306;22;45546;-93
2022/09/05 11:36:07;;;;;;;;;0.00;0.00;;;;;;;;6337925;22;45366;-91
2022/09/05 11:38:48;;;;;;;;;0.00;0.00;;;;;;;;6337101;22;45391;-93
2022/09/05 11:41:32;;;;;;;;;0.00;0.00;;;;;;;;6366372;22;46377;-93
2022/09/05 11:44:16;;;;;;;;;1.67;1.67;;;;;;;;6392236;22;45220;-92
2022/09/05 11:47:01;;;;;;;;;0.67;0.67;;;;;;;;6395889;22;44695;-92
2022/09/05 11:49:45;;;;;;;;;0.67;0.67;;;;;;;;6335399;22;45692;-92
2022/09/05 11:52:20;;;;;;;;;1.00;1.00;;;;;;;;6348620;22;47130;-93
2022/09/05 11:55:04;;;;;;;;;0.00;0.00;;;;;;;;6345298;22;45701;-94
2022/09/05 11:57:48;;;;;;;;;2.00;1.00;;;;;;;;6379706;22;45166;-93
2022/09/05 12:00:22;;;;;;;;;0.00;0.00;;;;;;;;6349350;22;45272;-93
2022/09/05 12:02:56;;;;;;;;;0.00;0.00;;;;;;;;6351372;22;47270;-94
2022/09/05 12:05:41;;;;;;;;;0.33;0.33;;;;;;;;6350523;22;45408;-94
2022/09/05 12:08:24;;;;;;;;;0.00;0.00;;;;;;;;6379470;22;45323;-93
2022/09/05 12:11:02;;;;;;;;;0.00;0.00;;;;;;;;6349089;22;45287;-93
2022/09/05 12:13:47;;;;;;;;;1.00;0.00;;;;;;;;6370848;22;46221;-91
2022/09/05 12:16:20;;;;;;;;;0.00;0.00;;;;;;;;6342725;22;45802;-94
2022/09/05 12:19:03;;;;;;;;;0.00;0.00;;;;;;;;6369049;22;45311;-94
2022/09/05 12:21:32;;;;;;;;;2.00;0.00;;;;;;;;6369156;22;45528;-92
2022/09/05 12:24:04;;;;;;;;;0.00;0.00;;;;;;;;6338705;22;47123;-93
2022/09/05 12:26:36;;;;;;;;;0.00;0.00;;;;;;;;6339335;22;45639;-96
2022/09/05 12:29:18;;;;;;;;;0.67;0.67;;;;;;;;6338509;22;45327;-96
2022/09/05 12:31:49;;;;;;;;;1.00;1.00;;;;;;;;6338596;22;45470;-94
2022/09/05 12:34:34;;;;;;;;;1.00;1.00;;;;;;;;6337469;22;48143;-96
2022/09/05 12:37:02;;;;;;;;;0.33;0.33;;;;;;;;6338610;22;45324;-96
2022/09/05 12:39:27;;;;;;;;;0.33;0.33;;;;;;;;6339223;22;45422;-96
2022/09/05 12:42:01;;;;;;;;;0.00;0.00;;;;;;;;6339313;22;45509;-93
2022/09/05 12:44:35;;;;;;;;;0.00;0.00;;;;;;;;6337656;22;47540;-92
2022/09/05 12:47:07;;;;;;;;;0.00;0.00;;;;;;;;6339721;22;45595;-93
2022/09/05 12:49:35;;;;;;;;;1.00;1.00;;;;;;;;6339327;22;45221;-96
2022/09/05 12:52:02;;;;;;;;;2.00;1.00;;;;;;;;6339767;22;45558;-94
2022/09/05 12:54:32;;;;;;;;;1.00;1.00;;;;;;;;6338700;22;48261;-95
2022/09/05 12:57:16;;;;;;;;;0.00;0.00;;;;;;;;6340022;22;45282;-95
2022/09/05 12:59:44;;;;;;;;;1.00;1.00;;;;;;;;6339527;22;45721;-96
2022/09/05 13:02:14;;;;;;;;;0.00;0.00;;;;;;;;6338273;22;45292;-95
2022/09/05 13:04:43;;;;;;;;;1.67;1.67;;;;;;;;6336736;22;47065;-94
2022/09/05 13:07:19;;;;;;;;;0.00;0.00;;;;;;;;6338801;22;45716;-94
2022/09/05 13:09:58;;;;;;;;;0.00;0.00;;;;;;;;6337686;22;45422;-94
2022/09/05 13:12:28;;;;;;;;;3.00;1.00;;;;;;;;6366598;22;45366;-95
2022/09/05 13:15:10;;;;;;;;;0.33;0.00;;;;;;;;6339046;22;47176;-96
2022/09/05 13:17:37;;;;;;;;;3.00;3.00;;;;;;;;6340006;22;45307;-94
2022/09/05 13:20:04;;;;;;;;;2.33;2.33;;;;;;;;6337886;22;45543;-94
2022/09/05 13:22:30;;;;;;;;;1.00;1.00;;;;;;;;6339788;22;45311;-94
2022/09/05 13:25:03;;;;;;;;;3.00;1.67;;;;;;;;6338119;22;47148;-94
2022/09/05 13:27:32;;;;;;;;;2.33;2.33;;;;;;;;6367528;22;45233;-94
2022/09/05 13:30:05;;;;;;;;;2.00;1.00;;;;;;;;6339113;22;45301;-94
2022/09/05 13:32:50;;;;;;;;;3.00;2.00;;;;;;;;6340101;22;45319;-94
2022/09/05 13:35:16;;;;;;;;;1.33;1.33;;;;;;;;6367571;22;46509;-93
2022/09/05 13:37:47;;;;;;;;;2.00;2.00;;;;;;;;6340370;22;45819;-93
2022/09/05 13:40:18;;;;;;;;;4.00;4.00;;;;;;;;6368091;22;45171;-92
2022/09/05 13:42:45;;;;;;;;;5.00;3.33;;;;;;;;6338675;22;45554;-93
2022/09/05 13:45:17;;;;;;;;;3.00;3.00;;;;;;;;6377299;22;45503;-94
2022/09/05 13:47:57;;;;;;;;;1.33;1.33;;;;;;;;6342681;22;45252;-93
2022/09/05 13:50:40;;;;;;;;;3.33;1.67;;;;;;;;6340024;22;45295;-93
2022/09/05 13:53:19;;;;;;;;;2.00;2.00;;;;;;;;6348984;22;45585;-93
2022/09/05 13:55:52;;;;;;;;;1.67;1.67;;;;;;;;6348444;22;48193;-94
2022/09/05 13:58:27;;;;;;;;;2.00;2.00;;;;;;;;6347871;22;45272;-93
2022/09/05 14:01:08;;;;;;;;;4.67;3.67;;;;;;;;6376718;22;45318;-95
2022/09/05 14:03:38;;;;;;;;;1.00;1.00;;;;;;;;6346861;22;45409;-95
2022/09/05 14:06:20;;;;;;;;;1.67;1.67;;;;;;;;6348033;22;47196;-91
2022/09/05 14:08:49;;;;;;;;;3.00;1.00;;;;;;;;6347421;22;45346;-93
2022/09/05 14:11:35;;;;;;;;;3.00;2.67;;;;;;;;6341382;22;45390;-94
2022/09/05 14:14:03;;;;;;;;;3.00;2.00;;;;;;;;6339471;22;45644;-93
2022/09/05 14:16:32;;;;;;;;;3.67;3.00;;;;;;;;6339832;22;47270;-94
2022/09/05 14:21:43;;;;;;;;;3.33;3.33;;;;;;;;6371691;22;45190;-95
2022/09/05 14:24:28;;;;;;;;;2.67;2.67;;;;;;;;6340343;22;45347;-93
2022/09/05 14:26:57;;;;;;;;;2.67;2.67;;;;;;;;6339422;22;48410;-94
2022/09/05 14:29:32;;;;;;;;;2.00;2.00;;;;;;;;6338703;22;45287;-95
2022/09/05 14:31:57;;;;;;;;;2.33;2.00;;;;;;;;6339450;22;45590;-96
2022/09/05 14:34:33;;;;;;;;;1.67;1.67;;;;;;;;6341368;22;45482;-93
2022/09/05 14:36:58;;;;;;;;;2.33;1.33;;;;;;;;6341128;22;46973;-96
2022/09/05 14:39:26;;;;;;;;;2.00;2.00;;;;;;;;6341881;22;45686;-96
2022/09/05 14:42:19;;;;;;;;;2.00;2.00;;;;;;;;6351741;22;45193;-96
2022/09/05 14:45:04;;;;;;;;;3.00;3.00;;;;;;;;6348141;22;45438;-96
2022/09/05 14:47:37;;;;;;;;;2.00;2.00;;;;;;;;6381000;22;45684;-96
2022/09/05 14:50:23;;;;;;;;;2.33;2.33;;;;;;;;6338755;22;45457;-91
2022/09/05 14:53:02;;;;;;;;;2.00;2.00;;;;;;;;6371190;22;44691;-95
2022/09/05 14:55:27;;;;;;;;;3.00;3.00;;;;;;;;6338334;22;45626;-89
2022/09/05 14:57:53;;;;;;;;;2.00;2.00;;;;;;;;6343412;22;47108;-91
2022/09/05 15:00:21;;;;;;;;;3.00;3.00;;;;;;;;6331085;22;45670;-92
2022/09/05 15:02:52;;;;;;;;;4.00;3.00;;;;;;;;6337951;22;45327;-92
2022/09/05 15:05:20;;;;;;;;;3.33;3.33;;;;;;;;6337662;22;45444;-92
2022/09/05 15:07:46;;;;;;;;;2.00;2.00;;;;;;;;6337809;22;46983;-93
2022/09/05 15:10:16;;;;;;;;;3.00;2.00;;;;;;;;6336278;22;45494;-93
2022/09/05 15:12:58;;;;;;;;;2.00;2.00;;;;;;;;6337629;22;45627;-93
2022/09/05 15:15:27;;;;;;;;;2.00;2.00;;;;;;;;6337969;22;45347;-94
2022/09/05 15:18:19;;;;;;;;;3.00;2.00;;;;;;;;6337851;22;47116;-91
2022/09/05 15:20:46;;;;;;;;;0.00;0.00;;;;;;;;6333584;22;45476;-93
2022/09/05 15:23:27;;;;;;;;;3.00;3.00;;;;;;;;6339584;22;45318;-95
2022/09/05 15:26:14;;;;;;;;;2.00;2.00;;;;;;;;6339622;22;45414;-93
2022/09/05 15:28:41;;;;;;;;;1.67;1.67;;;;;;;;6338515;22;48142;-95
2022/09/05 15:31:09;;;;;;;;;3.00;3.00;;;;;;;;6368429;22;45273;-89
2022/09/05 15:33:35;;;;;;;;;3.00;3.00;;;;;;;;6339056;22;45382;-94
2022/09/05 15:36:01;;;;;;;;;3.67;3.67;;;;;;;;6339496;22;45310;-96
2022/09/05 15:38:37;;;;;;;;;4.00;2.67;;;;;;;;6337995;22;47388;-93
2022/09/05 15:41:18;;;;;;;;;4.00;4.00;;;;;;;;6338757;22;45803;-92
2022/09/05 15:43:50;;;;;;;;;3.33;3.00;;;;;;;;6366100;22;45284;-93
2022/09/05 15:46:18;;;;;;;;;3.67;3.67;;;;;;;;6369922;22;45856;-94
2022/09/05 15:48:50;;;;;;;;;3.67;3.67;;;;;;;;6342726;22;48087;-94
2022/09/05 15:51:21;;;;;;;;;5.33;4.33;;;;;;;;6375575;22;45323;-94
2022/09/05 15:53:50;;;;;;;;;4.00;4.00;;;;;;;;6347546;22;45800;-94
2022/09/05 15:56:18;;;;;;;;;6.00;3.00;;;;;;;;6344628;22;45569;-94
2022/09/05 15:58:49;;;;;;;;;6.00;5.00;;;;;;;;6347741;22;47609;-91
2022/09/05 16:01:16;;;;;;;;;6.67;6.00;;;;;;;;6349191;22;45174;-94
2022/09/05 16:03:42;;;;;;;;;3.00;3.00;;;;;;;;6348868;22;45193;-93
2022/09/05 16:06:09;;;;;;;;;2.67;2.67;;;;;;;;6347498;22;45247;-91
2022/09/05 16:08:46;;;;;;;;;3.33;3.33;;;;;;;;6375731;22;45451;-93
2022/09/05 16:11:27;;;;;;;;;6.00;5.00;;;;;;;;6349544;22;45351;-94
2022/09/05 16:13:55;;;;;;;;;3.00;3.00;;;;;;;;6344200;22;45244;-93
2022/09/05 16:16:25;;;;;;;;;4.00;4.00;;;;;;;;6341424;22;45882;-92
2022/09/05 16:18:52;;;;;;;;;2.33;2.33;;;;;;;;6368711;22;45663;-92
2022/09/05 16:21:18;;;;;;;;;4.00;3.33;;;;;;;;6343392;22;45943;-96
2022/09/05 16:23:53;;;;;;;;;3.00;3.00;;;;;;;;6343227;22;45232;-95
2022/09/05 16:26:21;;;;;;;;;6.33;6.33;;;;;;;;6342071;22;45663;-95
2022/09/05 16:28:48;;;;;;;;;6.00;5.67;;;;;;;;6341839;22;47058;-95
2022/09/05 16:31:20;;;;;;;;;5.67;4.67;;;;;;;;6340949;22;45368;-95
2022/09/05 16:33:46;;;;;;;;;5.00;3.67;;;;;;;;6344133;22;45860;-96
2022/09/05 16:36:14;;;;;;;;;4.33;3.00;;;;;;;;6348728;22;45451;-96
2022/09/05 16:38:55;;;;;;;;;4.33;3.67;;;;;;;;6347917;22;47153;-96
2022/09/05 16:41:34;;;;;;;;;7.00;6.00;;;;;;;;6344935;22;45709;-96
2022/09/05 16:44:13;;;;;;;;;4.00;4.00;;;;;;;;6349020;22;45292;-96
2022/09/05 16:46:52;;;;;;;;;6.67;5.33;;;;;;;;6324881;22;45216;-96
2022/09/05 16:49:20;;;;;;;;;4.00;4.00;;;;;;;;6344995;22;46662;-95
2022/09/05 16:51:47;;;;;;;;;5.00;4.00;;;;;;;;6343018;22;45329;-95
2022/09/05 16:54:20;;;;;;;;;6.00;6.00;;;;;;;;6341071;22;45462;-96
2022/09/05 16:56:59;;;;;;;;;6.00;5.00;;;;;;;;6343230;22;45540;-95
2022/09/05 16:59:26;;;;;;;;;4.00;4.00;;;;;;;;6346490;22;47438;-96
2022/09/05 17:01:54;;;;;;;;;4.00;4.00;;;;;;;;6348880;22;45100;-94
2022/09/05 17:04:20;;;;;;;;;5.00;4.00;;;;;;;;6346896;22;45244;-93
2022/09/05 17:06:55;;;;;;;;;6.00;5.00;;;;;;;;6351254;22;45207;-96
2022/09/05 17:09:20;;;;;;;;;5.00;4.33;;;;;;;;6359032;22;45280;-96
2022/09/05 17:11:45;;;;;;;;;6.00;5.67;;;;;;;;6348373;22;45283;-95
2022/09/05 17:14:16;;;;;;;;;4.33;4.33;;;;;;;;6353817;22;45173;-96
2022/09/05 17:16:43;;;;;;;;;3.00;2.00;;;;;;;;6340743;22;45263;-96
2022/09/05 17:19:18;;;;;;;;;5.00;3.00;;;;;;;;6340705;22;46982;-96
2022/09/05 17:21:46;;;;;;;;;3.00;3.00;;;;;;;;6342150;22;45736;-94
2022/09/05 17:24:15;;;;;;;;;3.00;2.00;;;;;;;;6340007;22;45375;-93
2022/09/05 17:26:41;;;;;;;;;3.33;3.33;;;;;;;;6369440;22;45383;-93
2022/09/05 17:29:13;;;;;;;;;2.00;2.00;;;;;;;;6340063;22;47324;-93
2022/09/05 17:31:39;;;;;;;;;4.00;4.00;;;;;;;;6340826;22;45482;-95
2022/09/05 17:34:19;;;;;;;;;2.00;2.00;;;;;;;;6341792;22;45953;-91
2022/09/05 17:36:54;;;;;;;;;3.00;2.00;;;;;;;;6341438;22;45540;-95
2022/09/05 17:39:39;;;;;;;;;3.00;3.00;;;;;;;;6343938;22;47315;-96
2022/09/05 17:42:04;;;;;;;;;3.00;3.00;;;;;;;;6345858;22;45859;-94
2022/09/05 17:44:40;;;;;;;;;4.00;4.00;;;;;;;;6343513;22;45589;-95
2022/09/05 17:47:10;;;;;;;;;7.00;4.00;;;;;;;;6342083;22;45576;-91
2022/09/05 17:49:39;;;;;;;;;4.67;4.00;;;;;;;;6343612;22;47351;-94
2022/09/05 17:52:16;;;;;;;;;5.00;3.00;;;;;;;;6340695;22;45804;-93
2022/09/05 17:54:41;;;;;;;;;5.67;4.33;;;;;;;;6376997;22;45696;-94
2022/09/05 17:57:25;;;;;;;;;10.00;7.00;;;;;;;;6351177;22;45353;-96
2022/09/05 17:59:50;;;;;;;;;4.67;3.67;;;;;;;;6367586;22;36893;-95
2022/09/05 18:02:30;;;;;;;;;0.00;0.00;;;;;;;;6361142;22;45374;-96
2022/09/05 18:04:55;;;;;;;;;2.00;1.00;;;;;;;;6352038;22;45437;-95
2022/09/05 18:07:28;;;;;;;;;0.00;0.00;;;;;;;;6354324;22;44915;-96
2022/09/05 18:10:00;;;;;;;;;0.00;0.00;;;;;;;;6349708;22;46863;-94
2022/09/05 18:12:33;;;;;;;;;0.00;0.00;;;;;;;;6352426;22;45439;-96
2022/09/05 18:15:26;;;;;;;;;0.67;0.00;;;;;;;;6354042;22;45330;-96
2022/09/05 18:17:51;;;;;;;;;0.33;0.33;;;;;;;;6255597;22;45460;-93
2022/09/05 18:20:19;;;;;;;;;1.00;1.00;;;;;;;;6227673;22;46091;-92
2022/09/05 18:22:46;;;;;;;;;1.00;1.00;;;;;;;;6226256;22;45286;-96
2022/09/05 18:25:18;;;;;;;;;2.00;1.00;;;;;;;;6223879;22;45252;-96
2022/09/05 18:27:51;;;;;;;;;1.67;1.67;;;;;;;;6247286;22;45286;-95
2022/09/05 18:30:16;;;;;;;;;3.33;2.00;;;;;;;;6213101;22;47932;-93
2022/09/05 18:32:41;;;;;;;;;3.67;3.00;;;;;;;;6213792;22;45659;-93
2022/09/05 18:35:25;;;;;;;;;3.00;3.00;;;;;;;;6212407;22;45247;-93
2022/09/05 18:37:52;;;;;;;;;1.67;1.67;;;;;;;;6219549;22;45398;-95
2022/09/05 18:40:42;;;;;;;;;4.67;4.67;;;;;;;;6226587;22;46421;-96
2022/09/05 18:43:10;;;;;;;;;2.67;2.67;;;;;;;;6283822;22;46578;-96
2022/09/05 18:45:36;;;;;;;;;4.33;3.33;;;;;;;;6307848;22;44922;-91
2022/09/05 18:48:06;;;;;;;;;4.00;4.00;;;;;;;;6301028;22;45329;-95
2022/09/05 18:50:33;;;;;;;;;4.00;3.00;;;;;;;;6302645;22;47325;-94
2022/09/05 18:53:00;;;;;;;;;2.67;2.67;;;;;;;;6304958;22;45359;-95
2022/09/05 18:55:27;;;;;;;;;4.00;3.00;;;;;;;;6303271;22;45392;-95
2022/09/05 18:57:54;;;;;;;;;4.00;4.00;;;;;;;;6303818;22;45442;-94
2022/09/05 19:00:37;;;;;;;;;7.67;5.33;;;;;;;;6304646;22;45339;-94
2022/09/05 19:03:05;;;;;;;;;1.00;1.00;;;;;;;;6306486;22;45280;-95
2022/09/05 19:05:43;;;;;;;;;6.33;6.33;;;;;;;;6305236;22;45751;-96
2022/09/05 19:08:15;;;;;;;;;7.67;6.00;;;;;;;;6305724;22;45514;-86
2022/09/05 19:10:41;;;;;;;;;5.00;4.33;;;;;;;;6308163;22;45464;-95
2022/09/05 19:13:13;;;;;;;;;6.33;6.00;;;;;;;;6307450;22;45236;-95
2022/09/05 19:16:01;;;;;;;;;5.00;5.00;;;;;;;;6307611;22;45277;-96
2022/09/05 19:18:26;;;;;;;;;9.67;5.33;;;;;;;;6294289;22;45271;-89
2022/09/05 19:20:54;;;;;;;;;6.33;4.67;;;;;;;;6312414;22;46483;-96
2022/09/05 19:26:01;;;;;;;;;7.67;5.67;;;;;;;;6294432;22;46214;-96
2022/09/05 19:28:29;;;;;;;;;4.33;4.33;;;;;;;;6303891;22;46178;-94
2022/09/05 19:30:58;;;;;;;;;4.33;4.33;;;;;;;;6303786;22;46086;-94
2022/09/05 19:33:25;;;;;;;;;6.33;5.00;;;;;;;;6303180;22;45592;-96
2022/09/05 19:35:57;;;;;;;;;6.33;6.33;;;;;;;;6305699;22;45312;-96
2022/09/05 19:38:22;;;;;;;;;5.67;5.67;;;;;;;;6307167;22;45400;-94
2022/09/05 19:40:47;;;;;;;;;8.67;7.67;;;;;;;;6306218;22;46278;-95
2022/09/05 19:43:16;;;;;;;;;7.33;5.33;;;;;;;;6304570;22;44908;-95
2022/09/05 19:45:41;;;;;;;;;7.33;6.00;;;;;;;;6306246;22;45400;-94
2022/09/05 19:48:24;;;;;;;;;7.33;7.33;;;;;;;;6307023;22;45276;-95
2022/09/05 19:50:52;;;;;;;;;6.00;6.00;;;;;;;;6311464;22;45228;-96
2022/09/05 19:53:18;;;;;;;;;6.00;6.00;;;;;;;;6317382;22;45316;-95
2022/09/05 19:55:44;;;;;;;;;7.33;5.00;;;;;;;;6321186;22;45268;-91
2022/09/05 19:58:15;;;;;;;;;5.67;5.67;;;;;;;;6316456;22;45314;-96
2022/09/05 20:00:41;;;;;;;;;7.00;7.00;;;;;;;;6317289;22;46074;-87
2022/09/05 20:03:06;;;;;;;;;7.00;5.33;;;;;;;;6311952;22;45947;-94
2022/09/05 20:05:37;;;;;;;;;7.00;5.67;;;;;;;;6311586;22;45360;-94
2022/09/05 20:08:06;;;;;;;;;7.00;7.00;;;;;;;;6311677;22;45332;-94
2022/09/05 20:10:32;;;;;;;;;8.00;7.00;;;;;;;;6310789;22;47313;-94
2022/09/05 20:12:57;;;;;;;;;5.33;5.33;;;;;;;;6310844;22;45456;-94
2022/09/05 20:15:22;;;;;;;;;6.67;6.33;;;;;;;;6310943;22;45398;-94
2022/09/05 20:17:49;;;;;;;;;4.67;4.67;;;;;;;;6310179;22;45457;-93
2022/09/05 20:20:16;;;;;;;;;6.00;6.00;;;;;;;;6303557;22;47514;-94
2022/09/05 20:22:46;;;;;;;;;9.00;7.00;;;;;;;;6302730;22;45281;-94
2022/09/05 20:25:14;;;;;;;;;6.00;6.00;;;;;;;;6302475;22;45593;-93
2022/09/05 20:27:39;;;;;;;;;7.33;7.33;;;;;;;;6291181;22;45327;-94
2022/09/05 20:30:06;;;;;;;;;7.67;7.67;;;;;;;;6245211;22;47082;-92
2022/09/05 20:32:40;;;;;;;;;8.67;7.67;;;;;;;;6273640;22;45234;-94
2022/09/05 20:35:06;;;;;;;;;9.33;6.00;;;;;;;;6244568;22;45343;-93
2022/09/05 20:37:34;;;;;;;;;8.00;8.00;;;;;;;;6245469;22;45495;-92
2022/09/05 20:40:00;;;;;;;;;8.00;8.00;;;;;;;;6242833;22;48644;-94
2022/09/05 20:42:28;;;;;;;;;5.33;5.00;;;;;;;;6244512;22;45246;-93
2022/09/05 20:44:54;;;;;;;;;8.00;7.00;;;;;;;;6244692;22;45285;-94
2022/09/05 20:47:22;;;;;;;;;7.67;7.67;;;;;;;;6247425;22;45307;-93
2022/09/05 20:49:50;;;;;;;;;5.33;3.00;;;;;;;;6246860;22;48650;-94
2022/09/05 20:52:27;;;;;;;;;6.00;6.00;;;;;;;;6246236;22;45670;-95
2022/09/05 20:54:52;;;;;;;;;6.00;6.00;;;;;;;;6274402;22;45412;-93
2022/09/05 20:57:19;;;;;;;;;8.33;6.00;;;;;;;;6245678;22;45369;-94
2022/09/05 20:59:46;;;;;;;;;7.33;5.67;;;;;;;;6246448;22;46983;-93
2022/09/05 21:02:24;;;;;;;;;8.67;7.33;;;;;;;;6246895;22;45878;-95
2022/09/05 21:04:58;;;;;;;;;5.67;5.67;;;;;;;;6246787;22;45285;-94
2022/09/05 21:07:37;;;;;;;;;9.00;6.00;;;;;;;;6247083;22;45550;-94
2022/09/05 21:10:03;;;;;;;;;6.67;6.67;;;;;;;;6246204;22;47054;-95
2022/09/05 21:12:29;;;;;;;;;6.67;6.33;;;;;;;;6246596;22;45528;-94
2022/09/05 21:15:02;;;;;;;;;8.00;8.00;;;;;;;;6246952;22;45363;-94
2022/09/05 21:17:27;;;;;;;;;9.67;9.67;;;;;;;;6247107;22;45583;-94
2022/09/05 21:19:55;;;;;;;;;7.67;7.33;;;;;;;;6246530;22;48423;-95
2022/09/05 21:22:22;;;;;;;;;9.67;8.33;;;;;;;;6246809;22;45270;-94
2022/09/05 21:25:06;;;;;;;;;9.00;8.67;;;;;;;;6245651;22;45641;-94
2022/09/05 21:27:31;;;;;;;;;8.00;6.00;;;;;;;;6264211;22;45420;-93
2022/09/05 21:30:16;;;;;;;;;7.33;5.67;;;;;;;;6303095;22;47350;-95
2022/09/05 21:32:42;;;;;;;;;10.00;9.00;;;;;;;;6303415;22;46194;-94
2022/09/05 21:35:08;;;;;;;;;7.33;7.33;;;;;;;;6304877;22;45379;-94
2022/09/05 21:37:33;;;;;;;;;9.33;9.33;;;;;;;;6304020;22;45464;-94
2022/09/05 21:39:59;;;;;;;;;10.67;9.67;;;;;;;;6302466;22;47230;-94
2022/09/05 21:42:24;;;;;;;;;7.33;6.00;;;;;;;;6303860;22;45273;-94
2022/09/05 21:44:50;;;;;;;;;7.00;7.00;;;;;;;;6303599;22;45264;-94
2022/09/05 21:47:15;;;;;;;;;8.33;8.00;;;;;;;;6304642;22;45298;-94
2022/09/05 21:49:42;;;;;;;;;12.67;11.00;;;;;;;;6303053;22;47215;-94
2022/09/05 21:52:08;;;;;;;;;11.67;11.00;;;;;;;;6308197;22;45214;-94
2022/09/05 21:54:36;;;;;;;;;7.33;7.00;;;;;;;;6311094;22;45335;-94
2022/09/05 21:57:03;;;;;;;;;9.33;9.00;;;;;;;;6311790;22;45409;-94
2022/09/05 21:59:30;;;;;;;;;8.67;8.00;;;;;;;;6313522;22;46823;-93
2022/09/05 22:01:56;;;;;;;;;9.00;9.00;;;;;;;;6312553;22;45275;-95
2022/09/05 22:04:21;;;;;;;;;12.33;9.33;;;;;;;;6312235;22;45235;-94
2022/09/05 22:06:47;;;;;;;;;10.67;9.33;;;;;;;;6313041;22;45343;-94
2022/09/05 22:09:15;;;;;;;;;8.00;8.00;;;;;;;;6311662;22;46867;-95
2022/09/05 22:11:40;;;;;;;;;8.00;8.00;;;;;;;;6313608;22;45751;-94
2022/09/05 22:14:07;;;;;;;;;9.00;9.00;;;;;;;;6312898;22;45267;-94
2022/09/05 22:16:33;;;;;;;;;7.00;7.00;;;;;;;;6313275;22;45257;-93
2022/09/05 22:18:59;;;;;;;;;7.33;7.33;;;;;;;;6305194;22;48175;-94
2022/09/05 22:21:27;;;;;;;;;8.67;8.00;;;;;;;;6303644;22;45539;-95
2022/09/05 22:23:58;;;;;;;;;10.00;9.00;;;;;;;;6302645;22;45479;-93
2022/09/05 22:26:24;;;;;;;;;11.67;11.67;;;;;;;;6303353;22;45293;-94
2022/09/05 22:28:50;;;;;;;;;7.00;7.00;;;;;;;;6301922;22;47242;-94
2022/09/05 22:31:18;;;;;;;;;8.00;8.00;;;;;;;;6303646;22;45231;-94
2022/09/05 22:33:44;;;;;;;;;13.00;10.00;;;;;;;;6302738;22;45748;-93
2022/09/05 22:36:09;;;;;;;;;11.00;9.00;;;;;;;;6305296;22;45320;-94
2022/09/05 22:38:37;;;;;;;;;10.67;10.67;;;;;;;;6302858;22;47078;-92
2022/09/05 22:41:03;;;;;;;;;10.67;6.33;;;;;;;;6303296;22;45421;-93